sensor_id;sensor_type;location;lat;lon;timestamp;P1;durP1;ratioP1;P2;durP2;ratioP2
59824;SDS011;45703;50.898;6.054;2022-12-11T00:01:10;30.17;;;13.90;;
59824;SDS011;45703;50.898;6.054;2022-12-11T00:03:36;28.00;;;12.90;;
59824;SDS011;45703;50.898;6.054;2022-12-11T00:06:09;29.42;;;12.05;;
59824;SDS011;45703;50.898;6.054;2022-12-11T00:08:36;27.40;;;12.38;;
59824;SDS011;45703;50.898;6.054;2022-12-11T00:11:02;31.23;;;12.45;;
59824;SDS011;45703;50.898;6.054;2022-12-11T00:13:28;24.05;;;11.30;;
59824;SDS011;45703;50.898;6.054;2022-12-11T00:15:53;26.02;;;12.02;;
59824;SDS011;45703;50.898;6.054;2022-12-11T00:18:19;26.02;;;10.93;;
59824;SDS011;45703;50.898;6.054;2022-12-11T00:20:45;23.63;;;11.52;;
59824;SDS011;45703;50.898;6.054;2022-12-11T00:23:10;25.38;;;12.43;;
59824;SDS011;45703;50.898;6.054;2022-12-11T00:25:43;26.83;;;10.80;;
59824;SDS011;45703;50.898;6.054;2022-12-11T00:28:11;22.13;;;9.65;;
59824;SDS011;45703;50.898;6.054;2022-12-11T00:30:39;23.63;;;10.65;;
59824;SDS011;45703;50.898;6.054;2022-12-11T00:33:06;23.42;;;9.95;;
59824;SDS011;45703;50.898;6.054;2022-12-11T00:35:31;28.48;;;11.57;;
59824;SDS011;45703;50.898;6.054;2022-12-11T00:37:57;27.15;;;11.80;;
59824;SDS011;45703;50.898;6.054;2022-12-11T00:40:22;30.42;;;11.82;;
59824;SDS011;45703;50.898;6.054;2022-12-11T00:42:47;29.95;;;11.55;;
59824;SDS011;45703;50.898;6.054;2022-12-11T00:45:13;26.13;;;11.60;;
59824;SDS011;45703;50.898;6.054;2022-12-11T00:47:38;24.33;;;10.82;;
59824;SDS011;45703;50.898;6.054;2022-12-11T00:50:04;23.63;;;10.45;;
59824;SDS011;45703;50.898;6.054;2022-12-11T00:52:29;24.50;;;10.73;;
59824;SDS011;45703;50.898;6.054;2022-12-11T00:54:55;23.75;;;9.57;;
59824;SDS011;45703;50.898;6.054;2022-12-11T00:57:20;28.02;;;11.38;;
59824;SDS011;45703;50.898;6.054;2022-12-11T00:59:45;25.55;;;10.65;;
59824;SDS011;45703;50.898;6.054;2022-12-11T01:02:11;25.70;;;11.75;;
59824;SDS011;45703;50.898;6.054;2022-12-11T01:04:36;28.92;;;11.98;;
59824;SDS011;45703;50.898;6.054;2022-12-11T01:07:02;30.17;;;12.00;;
59824;SDS011;45703;50.898;6.054;2022-12-11T01:09:27;28.35;;;11.93;;
59824;SDS011;45703;50.898;6.054;2022-12-11T01:12:11;24.45;;;10.88;;
59824;SDS011;45703;50.898;6.054;2022-12-11T01:14:36;25.35;;;10.27;;
59824;SDS011;45703;50.898;6.054;2022-12-11T01:17:02;23.73;;;11.32;;
59824;SDS011;45703;50.898;6.054;2022-12-11T01:19:28;22.75;;;10.05;;
59824;SDS011;45703;50.898;6.054;2022-12-11T01:21:53;20.55;;;9.48;;
59824;SDS011;45703;50.898;6.054;2022-12-11T01:24:18;22.75;;;10.82;;
59824;SDS011;45703;50.898;6.054;2022-12-11T01:26:44;22.45;;;10.75;;
59824;SDS011;45703;50.898;6.054;2022-12-11T01:29:09;23.38;;;10.00;;
59824;SDS011;45703;50.898;6.054;2022-12-11T01:31:35;21.63;;;9.30;;
59824;SDS011;45703;50.898;6.054;2022-12-11T01:34:01;23.23;;;10.30;;
59824;SDS011;45703;50.898;6.054;2022-12-11T01:36:27;21.88;;;9.52;;
59824;SDS011;45703;50.898;6.054;2022-12-11T01:38:52;19.02;;;8.90;;
59824;SDS011;45703;50.898;6.054;2022-12-11T01:41:18;21.25;;;8.73;;
59824;SDS011;45703;50.898;6.054;2022-12-11T01:44:04;22.30;;;9.27;;
59824;SDS011;45703;50.898;6.054;2022-12-11T01:46:32;21.00;;;8.25;;
59824;SDS011;45703;50.898;6.054;2022-12-11T01:49:00;20.25;;;8.50;;
59824;SDS011;45703;50.898;6.054;2022-12-11T01:51:28;21.55;;;9.00;;
59824;SDS011;45703;50.898;6.054;2022-12-11T01:54:01;18.75;;;8.55;;
59824;SDS011;45703;50.898;6.054;2022-12-11T01:56:31;19.00;;;8.27;;
59824;SDS011;45703;50.898;6.054;2022-12-11T01:59:01;18.63;;;8.27;;
59824;SDS011;45703;50.898;6.054;2022-12-11T02:01:42;18.40;;;7.97;;
59824;SDS011;45703;50.898;6.054;2022-12-11T02:04:12;21.27;;;8.90;;
59824;SDS011;45703;50.898;6.054;2022-12-11T02:06:39;22.02;;;8.95;;
59824;SDS011;45703;50.898;6.054;2022-12-11T02:09:16;20.77;;;8.55;;
59824;SDS011;45703;50.898;6.054;2022-12-11T02:20:25;22.25;;;9.25;;
59824;SDS011;45703;50.898;6.054;2022-12-11T02:31:01;20.83;;;8.45;;
59824;SDS011;45703;50.898;6.054;2022-12-11T02:33:33;25.50;;;10.55;;
59824;SDS011;45703;50.898;6.054;2022-12-11T02:36:08;26.48;;;10.80;;
59824;SDS011;45703;50.898;6.054;2022-12-11T02:38:35;22.00;;;9.20;;
59824;SDS011;45703;50.898;6.054;2022-12-11T02:41:04;23.98;;;10.70;;
59824;SDS011;45703;50.898;6.054;2022-12-11T02:43:33;25.60;;;10.15;;
59824;SDS011;45703;50.898;6.054;2022-12-11T02:46:02;24.50;;;9.60;;
59824;SDS011;45703;50.898;6.054;2022-12-11T02:48:30;24.20;;;10.15;;
59824;SDS011;45703;50.898;6.054;2022-12-11T02:50:56;22.50;;;9.60;;
59824;SDS011;45703;50.898;6.054;2022-12-11T02:53:25;24.02;;;9.85;;
59824;SDS011;45703;50.898;6.054;2022-12-11T02:56:00;23.25;;;10.80;;
59824;SDS011;45703;50.898;6.054;2022-12-11T02:58:32;24.42;;;10.88;;
59824;SDS011;45703;50.898;6.054;2022-12-11T03:01:00;23.38;;;11.05;;
59824;SDS011;45703;50.898;6.054;2022-12-11T03:03:27;22.60;;;10.48;;
59824;SDS011;45703;50.898;6.054;2022-12-11T03:05:54;24.65;;;10.20;;
59824;SDS011;45703;50.898;6.054;2022-12-11T03:08:20;24.83;;;9.95;;
59824;SDS011;45703;50.898;6.054;2022-12-11T03:10:45;22.23;;;8.95;;
59824;SDS011;45703;50.898;6.054;2022-12-11T03:13:11;22.05;;;9.38;;
59824;SDS011;45703;50.898;6.054;2022-12-11T03:21:16;21.98;;;9.10;;
59824;SDS011;45703;50.898;6.054;2022-12-11T03:23:49;21.63;;;9.60;;
59824;SDS011;45703;50.898;6.054;2022-12-11T03:26:27;22.40;;;9.20;;
59824;SDS011;45703;50.898;6.054;2022-12-11T03:28:57;17.55;;;8.20;;
59824;SDS011;45703;50.898;6.054;2022-12-11T03:31:35;19.65;;;8.52;;
59824;SDS011;45703;50.898;6.054;2022-12-11T03:34:13;20.10;;;8.15;;
59824;SDS011;45703;50.898;6.054;2022-12-11T03:36:43;22.92;;;8.35;;
59824;SDS011;45703;50.898;6.054;2022-12-11T03:39:12;20.45;;;8.40;;
59824;SDS011;45703;50.898;6.054;2022-12-11T03:41:43;19.67;;;8.57;;
59824;SDS011;45703;50.898;6.054;2022-12-11T03:44:10;19.30;;;8.77;;
59824;SDS011;45703;50.898;6.054;2022-12-11T03:46:37;19.45;;;8.23;;
59824;SDS011;45703;50.898;6.054;2022-12-11T03:49:08;19.42;;;7.72;;
59824;SDS011;45703;50.898;6.054;2022-12-11T03:51:39;23.15;;;8.95;;
59824;SDS011;45703;50.898;6.054;2022-12-11T03:54:06;17.10;;;7.70;;
59824;SDS011;45703;50.898;6.054;2022-12-11T03:56:32;18.08;;;8.52;;
59824;SDS011;45703;50.898;6.054;2022-12-11T03:59:01;16.65;;;7.30;;
59824;SDS011;45703;50.898;6.054;2022-12-11T04:01:27;16.48;;;7.53;;
59824;SDS011;45703;50.898;6.054;2022-12-11T04:03:52;19.52;;;7.72;;
59824;SDS011;45703;50.898;6.054;2022-12-11T04:06:18;20.33;;;8.95;;
59824;SDS011;45703;50.898;6.054;2022-12-11T04:08:43;19.92;;;8.10;;
59824;SDS011;45703;50.898;6.054;2022-12-11T04:11:09;20.13;;;8.27;;
59824;SDS011;45703;50.898;6.054;2022-12-11T04:13:53;16.98;;;7.68;;
59824;SDS011;45703;50.898;6.054;2022-12-11T04:16:37;16.10;;;6.50;;
59824;SDS011;45703;50.898;6.054;2022-12-11T04:19:03;18.02;;;8.30;;
59824;SDS011;45703;50.898;6.054;2022-12-11T04:21:48;19.52;;;7.75;;
59824;SDS011;45703;50.898;6.054;2022-12-11T04:24:32;19.33;;;7.43;;
59824;SDS011;45703;50.898;6.054;2022-12-11T04:26:57;17.98;;;7.43;;
59824;SDS011;45703;50.898;6.054;2022-12-11T04:29:22;16.20;;;7.28;;
59824;SDS011;45703;50.898;6.054;2022-12-11T04:31:48;15.32;;;7.50;;
59824;SDS011;45703;50.898;6.054;2022-12-11T04:34:14;18.48;;;7.70;;
59824;SDS011;45703;50.898;6.054;2022-12-11T04:36:40;16.45;;;7.57;;
59824;SDS011;45703;50.898;6.054;2022-12-11T04:39:05;19.15;;;8.02;;
59824;SDS011;45703;50.898;6.054;2022-12-11T04:41:30;20.00;;;8.23;;
59824;SDS011;45703;50.898;6.054;2022-12-11T04:43:56;14.77;;;7.03;;
59824;SDS011;45703;50.898;6.054;2022-12-11T04:46:22;16.35;;;7.07;;
59824;SDS011;45703;50.898;6.054;2022-12-11T04:48:49;14.88;;;7.05;;
59824;SDS011;45703;50.898;6.054;2022-12-11T04:51:15;16.25;;;7.43;;
59824;SDS011;45703;50.898;6.054;2022-12-11T04:53:41;18.92;;;7.80;;
59824;SDS011;45703;50.898;6.054;2022-12-11T04:56:07;16.80;;;7.00;;
59824;SDS011;45703;50.898;6.054;2022-12-11T04:58:34;16.48;;;6.88;;
59824;SDS011;45703;50.898;6.054;2022-12-11T05:01:14;17.27;;;7.25;;
59824;SDS011;45703;50.898;6.054;2022-12-11T05:03:41;15.65;;;7.28;;
59824;SDS011;45703;50.898;6.054;2022-12-11T05:06:07;16.73;;;6.15;;
59824;SDS011;45703;50.898;6.054;2022-12-11T05:08:34;17.05;;;6.80;;
59824;SDS011;45703;50.898;6.054;2022-12-11T05:11:02;16.10;;;6.20;;
59824;SDS011;45703;50.898;6.054;2022-12-11T05:13:30;16.17;;;6.75;;
59824;SDS011;45703;50.898;6.054;2022-12-11T05:15:56;16.88;;;7.25;;
59824;SDS011;45703;50.898;6.054;2022-12-11T05:18:22;14.40;;;6.93;;
59824;SDS011;45703;50.898;6.054;2022-12-11T05:20:54;15.88;;;7.20;;
59824;SDS011;45703;50.898;6.054;2022-12-11T05:23:24;13.95;;;6.07;;
59824;SDS011;45703;50.898;6.054;2022-12-11T05:25:50;15.52;;;6.60;;
59824;SDS011;45703;50.898;6.054;2022-12-11T05:28:17;15.50;;;6.68;;
59824;SDS011;45703;50.898;6.054;2022-12-11T05:30:42;12.18;;;5.25;;
59824;SDS011;45703;50.898;6.054;2022-12-11T05:33:08;12.27;;;5.05;;
59824;SDS011;45703;50.898;6.054;2022-12-11T05:35:33;15.98;;;6.43;;
59824;SDS011;45703;50.898;6.054;2022-12-11T05:37:58;15.27;;;6.20;;
59824;SDS011;45703;50.898;6.054;2022-12-11T05:40:24;13.85;;;5.97;;
59824;SDS011;45703;50.898;6.054;2022-12-11T05:42:49;15.38;;;5.43;;
59824;SDS011;45703;50.898;6.054;2022-12-11T05:45:15;13.70;;;5.28;;
59824;SDS011;45703;50.898;6.054;2022-12-11T05:47:41;12.45;;;5.07;;
59824;SDS011;45703;50.898;6.054;2022-12-11T05:50:06;11.85;;;5.72;;
59824;SDS011;45703;50.898;6.054;2022-12-11T05:52:32;13.40;;;5.65;;
59824;SDS011;45703;50.898;6.054;2022-12-11T05:54:57;14.43;;;6.00;;
59824;SDS011;45703;50.898;6.054;2022-12-11T05:57:23;13.63;;;5.50;;
59824;SDS011;45703;50.898;6.054;2022-12-11T05:59:48;13.60;;;5.35;;
59824;SDS011;45703;50.898;6.054;2022-12-11T06:02:13;14.27;;;6.00;;
59824;SDS011;45703;50.898;6.054;2022-12-11T06:04:39;12.57;;;5.25;;
59824;SDS011;45703;50.898;6.054;2022-12-11T06:07:04;12.60;;;5.30;;
59824;SDS011;45703;50.898;6.054;2022-12-11T06:09:29;18.80;;;6.22;;
59824;SDS011;45703;50.898;6.054;2022-12-11T06:11:54;13.15;;;4.97;;
59824;SDS011;45703;50.898;6.054;2022-12-11T06:14:20;13.52;;;5.57;;
59824;SDS011;45703;50.898;6.054;2022-12-11T06:16:45;10.88;;;5.00;;
59824;SDS011;45703;50.898;6.054;2022-12-11T06:19:14;13.32;;;5.57;;
59824;SDS011;45703;50.898;6.054;2022-12-11T06:21:42;12.70;;;5.30;;
59824;SDS011;45703;50.898;6.054;2022-12-11T06:24:08;11.30;;;4.90;;
59824;SDS011;45703;50.898;6.054;2022-12-11T06:26:35;12.32;;;5.45;;
59824;SDS011;45703;50.898;6.054;2022-12-11T06:29:00;10.80;;;5.57;;
59824;SDS011;45703;50.898;6.054;2022-12-11T06:31:26;12.48;;;5.93;;
59824;SDS011;45703;50.898;6.054;2022-12-11T06:33:51;11.98;;;5.13;;
59824;SDS011;45703;50.898;6.054;2022-12-11T06:36:17;14.32;;;5.85;;
59824;SDS011;45703;50.898;6.054;2022-12-11T06:38:45;12.93;;;5.85;;
59824;SDS011;45703;50.898;6.054;2022-12-11T06:41:11;13.38;;;5.57;;
59824;SDS011;45703;50.898;6.054;2022-12-11T06:43:38;14.00;;;6.55;;
59824;SDS011;45703;50.898;6.054;2022-12-11T06:46:08;12.65;;;6.07;;
59824;SDS011;45703;50.898;6.054;2022-12-11T06:48:38;16.73;;;6.40;;
59824;SDS011;45703;50.898;6.054;2022-12-11T06:51:06;13.23;;;5.90;;
59824;SDS011;45703;50.898;6.054;2022-12-11T06:53:34;13.20;;;6.88;;
59824;SDS011;45703;50.898;6.054;2022-12-11T06:56:07;14.85;;;6.50;;
59824;SDS011;45703;50.898;6.054;2022-12-11T06:58:35;16.20;;;7.22;;
59824;SDS011;45703;50.898;6.054;2022-12-11T07:01:02;13.75;;;6.57;;
59824;SDS011;45703;50.898;6.054;2022-12-11T07:03:28;13.93;;;6.75;;
59824;SDS011;45703;50.898;6.054;2022-12-11T07:05:58;12.98;;;6.18;;
59824;SDS011;45703;50.898;6.054;2022-12-11T07:08:26;15.10;;;6.45;;
59824;SDS011;45703;50.898;6.054;2022-12-11T07:10:53;14.50;;;6.78;;
59824;SDS011;45703;50.898;6.054;2022-12-11T07:13:18;11.40;;;5.72;;
59824;SDS011;45703;50.898;6.054;2022-12-11T07:15:43;14.25;;;6.70;;
59824;SDS011;45703;50.898;6.054;2022-12-11T07:18:09;13.70;;;6.28;;
59824;SDS011;45703;50.898;6.054;2022-12-11T07:20:34;15.65;;;6.68;;
59824;SDS011;45703;50.898;6.054;2022-12-11T07:23:00;13.40;;;6.53;;
59824;SDS011;45703;50.898;6.054;2022-12-11T07:25:25;13.07;;;5.93;;
59824;SDS011;45703;50.898;6.054;2022-12-11T07:27:51;14.10;;;6.03;;
59824;SDS011;45703;50.898;6.054;2022-12-11T07:30:16;15.13;;;7.22;;
59824;SDS011;45703;50.898;6.054;2022-12-11T07:32:41;14.20;;;6.50;;
59824;SDS011;45703;50.898;6.054;2022-12-11T07:35:07;14.02;;;5.95;;
59824;SDS011;45703;50.898;6.054;2022-12-11T07:37:33;15.40;;;6.70;;
59824;SDS011;45703;50.898;6.054;2022-12-11T07:39:58;14.20;;;6.45;;
59824;SDS011;45703;50.898;6.054;2022-12-11T07:42:23;14.50;;;6.13;;
59824;SDS011;45703;50.898;6.054;2022-12-11T07:44:49;14.25;;;6.18;;
59824;SDS011;45703;50.898;6.054;2022-12-11T07:47:14;14.02;;;5.50;;
59824;SDS011;45703;50.898;6.054;2022-12-11T07:49:39;12.68;;;6.05;;
59824;SDS011;45703;50.898;6.054;2022-12-11T07:52:05;16.75;;;6.18;;
59824;SDS011;45703;50.898;6.054;2022-12-11T07:54:30;14.95;;;6.65;;
59824;SDS011;45703;50.898;6.054;2022-12-11T07:56:55;15.50;;;6.72;;
59824;SDS011;45703;50.898;6.054;2022-12-11T07:59:21;14.20;;;6.30;;
59824;SDS011;45703;50.898;6.054;2022-12-11T08:01:46;12.45;;;5.18;;
59824;SDS011;45703;50.898;6.054;2022-12-11T08:04:12;14.05;;;5.90;;
59824;SDS011;45703;50.898;6.054;2022-12-11T08:06:39;12.75;;;6.38;;
59824;SDS011;45703;50.898;6.054;2022-12-11T08:09:07;13.65;;;6.28;;
59824;SDS011;45703;50.898;6.054;2022-12-11T08:11:34;12.45;;;5.85;;
59824;SDS011;45703;50.898;6.054;2022-12-11T08:14:00;15.77;;;6.70;;
59824;SDS011;45703;50.898;6.054;2022-12-11T08:16:26;15.23;;;7.00;;
59824;SDS011;45703;50.898;6.054;2022-12-11T08:18:52;13.57;;;5.97;;
59824;SDS011;45703;50.898;6.054;2022-12-11T08:21:27;13.93;;;5.57;;
59824;SDS011;45703;50.898;6.054;2022-12-11T08:23:53;14.15;;;6.07;;
59824;SDS011;45703;50.898;6.054;2022-12-11T08:26:20;14.07;;;5.97;;
59824;SDS011;45703;50.898;6.054;2022-12-11T08:28:47;13.10;;;5.50;;
59824;SDS011;45703;50.898;6.054;2022-12-11T08:31:14;11.73;;;5.55;;
59824;SDS011;45703;50.898;6.054;2022-12-11T08:33:40;13.48;;;6.10;;
59824;SDS011;45703;50.898;6.054;2022-12-11T08:36:07;14.07;;;6.25;;
59824;SDS011;45703;50.898;6.054;2022-12-11T08:38:34;12.93;;;5.63;;
59824;SDS011;45703;50.898;6.054;2022-12-11T08:41:09;13.13;;;5.78;;
59824;SDS011;45703;50.898;6.054;2022-12-11T08:43:36;12.88;;;5.40;;
59824;SDS011;45703;50.898;6.054;2022-12-11T08:46:02;13.88;;;5.70;;
59824;SDS011;45703;50.898;6.054;2022-12-11T08:48:27;13.40;;;5.82;;
59824;SDS011;45703;50.898;6.054;2022-12-11T08:50:53;13.20;;;6.07;;
59824;SDS011;45703;50.898;6.054;2022-12-11T08:53:18;13.45;;;6.75;;
59824;SDS011;45703;50.898;6.054;2022-12-11T08:55:43;12.77;;;6.30;;
59824;SDS011;45703;50.898;6.054;2022-12-11T08:58:09;15.02;;;7.00;;
59824;SDS011;45703;50.898;6.054;2022-12-11T09:00:34;14.43;;;6.93;;
59824;SDS011;45703;50.898;6.054;2022-12-11T09:03:00;13.07;;;6.07;;
59824;SDS011;45703;50.898;6.054;2022-12-11T09:05:25;13.18;;;6.13;;
59824;SDS011;45703;50.898;6.054;2022-12-11T09:07:51;14.98;;;6.35;;
59824;SDS011;45703;50.898;6.054;2022-12-11T09:10:16;13.23;;;6.95;;
59824;SDS011;45703;50.898;6.054;2022-12-11T09:12:42;18.58;;;6.35;;
59824;SDS011;45703;50.898;6.054;2022-12-11T09:15:07;14.45;;;6.28;;
59824;SDS011;45703;50.898;6.054;2022-12-11T09:17:33;13.18;;;5.82;;
59824;SDS011;45703;50.898;6.054;2022-12-11T09:19:59;13.82;;;6.20;;
59824;SDS011;45703;50.898;6.054;2022-12-11T09:22:24;14.32;;;6.20;;
59824;SDS011;45703;50.898;6.054;2022-12-11T09:24:50;13.82;;;6.22;;
59824;SDS011;45703;50.898;6.054;2022-12-11T09:27:15;13.90;;;6.05;;
59824;SDS011;45703;50.898;6.054;2022-12-11T09:29:41;14.98;;;6.10;;
59824;SDS011;45703;50.898;6.054;2022-12-11T09:32:06;15.52;;;6.63;;
59824;SDS011;45703;50.898;6.054;2022-12-11T09:34:31;14.93;;;6.65;;
59824;SDS011;45703;50.898;6.054;2022-12-11T09:36:57;14.63;;;6.15;;
59824;SDS011;45703;50.898;6.054;2022-12-11T09:39:23;13.30;;;5.75;;
59824;SDS011;45703;50.898;6.054;2022-12-11T09:47:34;14.55;;;6.38;;
59824;SDS011;45703;50.898;6.054;2022-12-11T09:55:03;12.90;;;5.10;;
59824;SDS011;45703;50.898;6.054;2022-12-11T09:57:50;12.50;;;5.63;;
59824;SDS011;45703;50.898;6.054;2022-12-11T10:13:54;15.27;;;6.72;;
59824;SDS011;45703;50.898;6.054;2022-12-11T10:19:01;14.85;;;6.28;;
59824;SDS011;45703;50.898;6.054;2022-12-11T10:21:28;13.18;;;6.32;;
59824;SDS011;45703;50.898;6.054;2022-12-11T10:24:02;13.07;;;5.85;;
59824;SDS011;45703;50.898;6.054;2022-12-11T10:26:36;14.73;;;6.75;;
59824;SDS011;45703;50.898;6.054;2022-12-11T10:29:05;13.20;;;6.10;;
59824;SDS011;45703;50.898;6.054;2022-12-11T10:31:40;15.38;;;6.55;;
59824;SDS011;45703;50.898;6.054;2022-12-11T10:34:15;14.50;;;6.68;;
59824;SDS011;45703;50.898;6.054;2022-12-11T10:36:49;14.32;;;6.57;;
59824;SDS011;45703;50.898;6.054;2022-12-11T10:39:15;13.48;;;6.25;;
59824;SDS011;45703;50.898;6.054;2022-12-11T10:41:44;15.00;;;6.70;;
59824;SDS011;45703;50.898;6.054;2022-12-11T10:44:14;13.85;;;6.10;;
59824;SDS011;45703;50.898;6.054;2022-12-11T10:46:48;13.25;;;5.50;;
59824;SDS011;45703;50.898;6.054;2022-12-11T10:49:35;14.02;;;6.47;;
59824;SDS011;45703;50.898;6.054;2022-12-11T10:52:08;13.65;;;5.80;;
59824;SDS011;45703;50.898;6.054;2022-12-11T10:54:45;13.10;;;5.40;;
59824;SDS011;45703;50.898;6.054;2022-12-11T10:57:24;14.40;;;6.68;;
59824;SDS011;45703;50.898;6.054;2022-12-11T10:59:52;13.50;;;6.03;;
59824;SDS011;45703;50.898;6.054;2022-12-11T11:05:00;14.82;;;6.10;;
59824;SDS011;45703;50.898;6.054;2022-12-11T11:07:36;12.48;;;5.60;;
59824;SDS011;45703;50.898;6.054;2022-12-11T11:12:36;13.10;;;5.95;;
59824;SDS011;45703;50.898;6.054;2022-12-11T11:15:16;12.93;;;6.28;;
59824;SDS011;45703;50.898;6.054;2022-12-11T11:17:48;14.40;;;6.38;;
59824;SDS011;45703;50.898;6.054;2022-12-11T11:20:17;13.15;;;5.85;;
59824;SDS011;45703;50.898;6.054;2022-12-11T11:22:45;14.57;;;6.80;;
59824;SDS011;45703;50.898;6.054;2022-12-11T11:25:17;16.20;;;6.93;;
59824;SDS011;45703;50.898;6.054;2022-12-11T11:27:47;12.73;;;6.45;;
59824;SDS011;45703;50.898;6.054;2022-12-11T11:30:22;16.30;;;6.43;;
59824;SDS011;45703;50.898;6.054;2022-12-11T11:32:51;14.23;;;7.25;;
59824;SDS011;45703;50.898;6.054;2022-12-11T11:35:25;15.80;;;6.68;;
59824;SDS011;45703;50.898;6.054;2022-12-11T11:38:14;15.73;;;6.47;;
59824;SDS011;45703;50.898;6.054;2022-12-11T11:40:43;15.75;;;7.38;;
59824;SDS011;45703;50.898;6.054;2022-12-11T11:48:48;14.45;;;6.25;;
59824;SDS011;45703;50.898;6.054;2022-12-11T11:51:37;14.82;;;6.65;;
59824;SDS011;45703;50.898;6.054;2022-12-11T11:54:17;17.40;;;7.90;;
59824;SDS011;45703;50.898;6.054;2022-12-11T11:56:50;15.50;;;6.60;;
59824;SDS011;45703;50.898;6.054;2022-12-11T12:01:56;16.02;;;7.32;;
59824;SDS011;45703;50.898;6.054;2022-12-11T12:04:22;13.73;;;6.75;;
59824;SDS011;45703;50.898;6.054;2022-12-11T12:10:16;15.63;;;7.13;;
59824;SDS011;45703;50.898;6.054;2022-12-11T12:13:00;15.90;;;6.80;;
59824;SDS011;45703;50.898;6.054;2022-12-11T12:15:54;15.13;;;7.55;;
59824;SDS011;45703;50.898;6.054;2022-12-11T12:26:27;14.02;;;6.57;;
59824;SDS011;45703;50.898;6.054;2022-12-11T12:34:22;16.80;;;7.38;;
59824;SDS011;45703;50.898;6.054;2022-12-11T12:44:48;17.50;;;7.93;;
59824;SDS011;45703;50.898;6.054;2022-12-11T12:47:22;13.52;;;6.38;;
59824;SDS011;45703;50.898;6.054;2022-12-11T12:49:52;14.80;;;7.07;;
59824;SDS011;45703;50.898;6.054;2022-12-11T12:52:25;16.27;;;7.65;;
59824;SDS011;45703;50.898;6.054;2022-12-11T12:54:56;15.18;;;7.45;;
59824;SDS011;45703;50.898;6.054;2022-12-11T13:02:51;14.57;;;7.50;;
59824;SDS011;45703;50.898;6.054;2022-12-11T13:05:27;14.75;;;7.13;;
59824;SDS011;45703;50.898;6.054;2022-12-11T13:07:58;13.90;;;6.75;;
59824;SDS011;45703;50.898;6.054;2022-12-11T13:10:29;16.73;;;7.85;;
59824;SDS011;45703;50.898;6.054;2022-12-11T13:12:57;16.08;;;7.63;;
59824;SDS011;45703;50.898;6.054;2022-12-11T13:15:37;15.73;;;7.95;;
59824;SDS011;45703;50.898;6.054;2022-12-11T13:20:58;16.13;;;7.85;;
59824;SDS011;45703;50.898;6.054;2022-12-11T13:23:29;17.80;;;7.80;;
59824;SDS011;45703;50.898;6.054;2022-12-11T13:26:00;16.10;;;7.63;;
59824;SDS011;45703;50.898;6.054;2022-12-11T13:31:03;13.35;;;6.50;;
59824;SDS011;45703;50.898;6.054;2022-12-11T13:33:40;19.02;;;8.57;;
59824;SDS011;45703;50.898;6.054;2022-12-11T13:38:33;14.65;;;7.82;;
59824;SDS011;45703;50.898;6.054;2022-12-11T13:41:00;16.08;;;7.63;;
59824;SDS011;45703;50.898;6.054;2022-12-11T13:43:30;17.63;;;8.05;;
59824;SDS011;45703;50.898;6.054;2022-12-11T13:45:58;14.30;;;7.22;;
59824;SDS011;45703;50.898;6.054;2022-12-11T13:48:27;16.17;;;7.78;;
59824;SDS011;45703;50.898;6.054;2022-12-11T13:51:12;15.57;;;7.93;;
59824;SDS011;45703;50.898;6.054;2022-12-11T13:53:41;17.17;;;8.15;;
59824;SDS011;45703;50.898;6.054;2022-12-11T13:56:12;14.75;;;7.28;;
59824;SDS011;45703;50.898;6.054;2022-12-11T13:58:41;15.48;;;7.60;;
59824;SDS011;45703;50.898;6.054;2022-12-11T14:01:07;17.30;;;7.53;;
59824;SDS011;45703;50.898;6.054;2022-12-11T14:03:38;14.85;;;7.05;;
59824;SDS011;45703;50.898;6.054;2022-12-11T14:06:07;16.42;;;8.48;;
59824;SDS011;45703;50.898;6.054;2022-12-11T14:08:35;14.75;;;6.97;;
59824;SDS011;45703;50.898;6.054;2022-12-11T14:11:03;14.70;;;7.50;;
59824;SDS011;45703;50.898;6.054;2022-12-11T14:13:33;14.00;;;7.32;;
59824;SDS011;45703;50.898;6.054;2022-12-11T14:16:01;14.00;;;7.05;;
59824;SDS011;45703;50.898;6.054;2022-12-11T14:18:28;12.75;;;6.28;;
59824;SDS011;45703;50.898;6.054;2022-12-11T14:20:59;14.35;;;7.43;;
59824;SDS011;45703;50.898;6.054;2022-12-11T14:23:36;13.50;;;6.35;;
59824;SDS011;45703;50.898;6.054;2022-12-11T14:26:03;14.18;;;7.15;;
59824;SDS011;45703;50.898;6.054;2022-12-11T14:28:41;15.95;;;7.35;;
59824;SDS011;45703;50.898;6.054;2022-12-11T14:31:07;15.63;;;7.55;;
59824;SDS011;45703;50.898;6.054;2022-12-11T14:33:39;16.42;;;7.90;;
59824;SDS011;45703;50.898;6.054;2022-12-11T14:36:08;14.90;;;7.25;;
59824;SDS011;45703;50.898;6.054;2022-12-11T14:38:36;15.55;;;7.03;;
59824;SDS011;45703;50.898;6.054;2022-12-11T14:41:11;16.23;;;7.38;;
59824;SDS011;45703;50.898;6.054;2022-12-11T14:43:50;14.88;;;7.28;;
59824;SDS011;45703;50.898;6.054;2022-12-11T14:46:24;13.95;;;6.60;;
59824;SDS011;45703;50.898;6.054;2022-12-11T14:49:20;14.80;;;6.82;;
59824;SDS011;45703;50.898;6.054;2022-12-11T14:51:46;14.77;;;6.70;;
59824;SDS011;45703;50.898;6.054;2022-12-11T14:54:32;14.25;;;7.20;;
59824;SDS011;45703;50.898;6.054;2022-12-11T14:57:02;17.10;;;7.75;;
59824;SDS011;45703;50.898;6.054;2022-12-11T14:59:30;14.98;;;7.07;;
59824;SDS011;45703;50.898;6.054;2022-12-11T15:07:36;13.43;;;6.28;;
59824;SDS011;45703;50.898;6.054;2022-12-11T15:10:03;15.48;;;6.82;;
59824;SDS011;45703;50.898;6.054;2022-12-11T15:12:29;14.85;;;7.40;;
59824;SDS011;45703;50.898;6.054;2022-12-11T15:14:56;16.40;;;7.53;;
59824;SDS011;45703;50.898;6.054;2022-12-11T15:17:25;15.43;;;7.30;;
59824;SDS011;45703;50.898;6.054;2022-12-11T15:19:52;13.75;;;6.55;;
59824;SDS011;45703;50.898;6.054;2022-12-11T15:22:21;12.90;;;6.22;;
59824;SDS011;45703;50.898;6.054;2022-12-11T15:24:49;12.60;;;6.25;;
59824;SDS011;45703;50.898;6.054;2022-12-11T15:29:48;14.05;;;6.38;;
59824;SDS011;45703;50.898;6.054;2022-12-11T15:32:16;13.02;;;6.70;;
59824;SDS011;45703;50.898;6.054;2022-12-11T15:39:50;14.23;;;7.07;;
59824;SDS011;45703;50.898;6.054;2022-12-11T15:42:22;15.50;;;7.13;;
59824;SDS011;45703;50.898;6.054;2022-12-11T15:44:48;13.65;;;6.68;;
59824;SDS011;45703;50.898;6.054;2022-12-11T15:47:14;15.38;;;7.28;;
59824;SDS011;45703;50.898;6.054;2022-12-11T15:49:44;13.50;;;7.05;;
59824;SDS011;45703;50.898;6.054;2022-12-11T15:52:09;15.02;;;6.97;;
59824;SDS011;45703;50.898;6.054;2022-12-11T15:54:35;14.13;;;7.05;;
59824;SDS011;45703;50.898;6.054;2022-12-11T15:57:00;15.27;;;7.90;;
59824;SDS011;45703;50.898;6.054;2022-12-11T15:59:30;14.23;;;7.68;;
59824;SDS011;45703;50.898;6.054;2022-12-11T16:01:56;15.02;;;7.28;;
59824;SDS011;45703;50.898;6.054;2022-12-11T16:04:22;15.52;;;7.68;;
59824;SDS011;45703;50.898;6.054;2022-12-11T16:06:47;14.18;;;7.78;;
59824;SDS011;45703;50.898;6.054;2022-12-11T16:09:13;16.48;;;8.13;;
59824;SDS011;45703;50.898;6.054;2022-12-11T16:11:38;15.40;;;7.90;;
59824;SDS011;45703;50.898;6.054;2022-12-11T16:14:03;16.58;;;7.85;;
59824;SDS011;45703;50.898;6.054;2022-12-11T16:16:29;15.48;;;7.35;;
59824;SDS011;45703;50.898;6.054;2022-12-11T16:18:55;16.45;;;7.60;;
59824;SDS011;45703;50.898;6.054;2022-12-11T16:21:20;14.32;;;8.05;;
59824;SDS011;45703;50.898;6.054;2022-12-11T16:23:45;16.40;;;7.45;;
59824;SDS011;45703;50.898;6.054;2022-12-11T16:26:11;16.42;;;8.75;;
59824;SDS011;45703;50.898;6.054;2022-12-11T16:28:38;14.65;;;7.93;;
59824;SDS011;45703;50.898;6.054;2022-12-11T16:31:08;17.48;;;8.63;;
59824;SDS011;45703;50.898;6.054;2022-12-11T16:33:37;17.65;;;9.07;;
59824;SDS011;45703;50.898;6.054;2022-12-11T16:36:13;16.83;;;8.40;;